Time;durP1;ratioP1;P1;durP2;ratioP2;P2;SDS_P1;SDS_P2;PMS_P1;PMS_P2;Temp;Humidity;BMP_temperature;BMP_pressure;BME280_temperature;BME280_humidity;BME280_pressure;Samples;Min_cycle;Max_cycle;Signal;HPM_P1;HPM_P2
2024/01/19 00:00:38;;;;;;;18.83;10.32;;;-0.30;99.90;;;;;;4953204;29;20054;-52
2024/01/19 00:03:05;;;;;;;17.20;8.75;;;-0.30;99.90;;;;;;4945446;28;20051;-57
2024/01/19 00:05:31;;;;;;;16.90;9.10;;;-0.30;99.90;;;;;;4953222;28;20043;-57
2024/01/19 00:07:58;;;;;;;16.75;8.85;;;-0.30;99.90;;;;;;4953224;29;20054;-53
2024/01/19 00:10:25;;;;;;;16.85;8.98;;;-0.30;99.90;;;;;;4953469;29;20055;-57
2024/01/19 00:12:52;;;;;;;16.95;8.52;;;-0.30;99.90;;;;;;4950670;29;20039;-55
2024/01/19 00:15:19;;;;;;;12.50;8.00;;;-0.30;99.90;;;;;;4949141;28;20053;-54
2024/01/19 00:17:54;;;;;;;15.90;8.73;;;-0.30;99.90;;;;;;4945873;29;20118;-53
2024/01/19 00:20:21;;;;;;;18.13;9.38;;;-0.30;99.90;;;;;;4949407;29;20051;-54
2024/01/19 00:22:48;;;;;;;19.80;9.35;;;-0.30;99.90;;;;;;4952268;29;20413;-55
2024/01/19 00:25:15;;;;;;;18.45;9.98;;;-0.30;99.90;;;;;;4953127;28;20043;-54
2024/01/19 00:27:42;;;;;;;18.90;9.38;;;-0.40;99.90;;;;;;4953322;29;20046;-53
2024/01/19 00:30:09;;;;;;;16.42;9.65;;;-0.40;99.90;;;;;;4950064;29;20403;-55
2024/01/19 00:32:35;;;;;;;;;;;-0.40;99.90;;;;;;4953260;29;20039;-54
2024/01/19 00:35:03;;;;;;;15.93;9.38;;;-0.40;99.90;;;;;;4952956;28;19926;-57
2024/01/19 00:37:29;;;;;;;18.33;9.20;;;-0.40;99.90;;;;;;4952600;29;20043;-53
2024/01/19 00:39:56;;;;;;;20.17;10.77;;;-0.40;99.90;;;;;;4945145;29;20054;-57
2024/01/19 00:42:23;;;;;;;18.17;9.90;;;-0.40;99.90;;;;;;4945773;29;20047;-53
2024/01/19 00:44:50;;;;;;;19.60;10.38;;;-0.40;99.90;;;;;;4949580;28;20066;-56
2024/01/19 00:47:16;;;;;;;21.42;11.43;;;-0.40;99.90;;;;;;4953251;29;20061;-57
2024/01/19 00:49:44;;;;;;;20.95;10.68;;;-0.40;99.90;;;;;;4949033;29;20051;-56
2024/01/19 00:52:10;;;;;;;;;;;-0.40;99.90;;;;;;4948118;29;20069;-56
2024/01/19 00:54:37;;;;;;;19.48;9.30;;;-0.40;99.90;;;;;;4951186;28;19929;-56
2024/01/19 00:57:04;;;;;;;13.38;7.88;;;-0.40;99.90;;;;;;4945735;29;20055;-56
2024/01/19 00:59:31;;;;;;;16.58;9.27;;;-0.40;99.90;;;;;;4944591;29;20054;-57
2024/01/19 01:01:57;;;;;;;16.10;9.32;;;-0.40;99.90;;;;;;4951007;29;20071;-56
2024/01/19 01:04:24;;;;;;;11.50;6.25;;;-0.30;99.90;;;;;;4952361;28;20039;-56
2024/01/19 01:06:51;;;;;;;18.85;8.40;;;-0.40;99.90;;;;;;4950748;29;20049;-55
2024/01/19 01:09:18;;;;;;;16.52;8.35;;;-0.40;99.90;;;;;;4951163;29;20040;-56
2024/01/19 01:11:45;;;;;;;15.23;8.80;;;-0.40;99.90;;;;;;4946535;28;20047;-55
2024/01/19 01:14:11;;;;;;;17.13;8.95;;;-0.50;99.90;;;;;;4951308;28;20423;-58
2024/01/19 01:16:38;;;;;;;19.80;9.68;;;-0.50;99.90;;;;;;4954071;29;20075;-56
2024/01/19 01:19:05;;;;;;;15.65;9.65;;;-0.40;99.90;;;;;;4955250;29;20050;-56
2024/01/19 01:21:32;;;;;;;19.58;10.45;;;-0.40;99.90;;;;;;4949315;29;20418;-55
2024/01/19 01:23:59;;;;;;;18.30;9.57;;;-0.40;99.90;;;;;;4944370;28;20516;-54
2024/01/19 01:26:26;;;;;;;17.55;9.82;;;-0.40;99.90;;;;;;4951536;29;20058;-58
2024/01/19 01:28:53;;;;;;;13.80;8.23;;;-0.50;99.90;;;;;;4948333;29;20043;-56
2024/01/19 01:31:20;;;;;;;15.70;8.65;;;-0.50;99.90;;;;;;4948319;28;20122;-55
2024/01/19 01:33:46;;;;;;;14.32;8.35;;;-0.50;99.90;;;;;;4953903;28;20049;-56
2024/01/19 01:36:14;;;;;;;15.55;7.90;;;-0.50;99.90;;;;;;4949687;29;20047;-54
2024/01/19 01:38:40;;;;;;;13.00;7.13;;;-0.50;99.90;;;;;;4948321;29;20043;-55
2024/01/19 01:41:07;;;;;;;17.10;7.43;;;-0.50;99.90;;;;;;4950176;29;20071;-56
2024/01/19 01:43:34;;;;;;;15.05;7.80;;;-0.50;99.90;;;;;;4955473;28;20047;-56
2024/01/19 01:46:01;;;;;;;11.82;6.38;;;-0.60;99.90;;;;;;4947130;28;20051;-55
2024/01/19 01:48:27;;;;;;;11.98;6.38;;;-0.60;99.90;;;;;;4954210;28;20146;-57
2024/01/19 01:50:55;;;;;;;13.32;6.07;;;-0.60;99.90;;;;;;4937345;29;20047;-55
2024/01/19 01:53:23;;;;;;;12.23;6.60;;;-0.70;99.90;;;;;;4955978;29;20112;-55
2024/01/19 01:55:51;;;;;;;13.52;6.25;;;-0.70;99.90;;;;;;4954802;28;20054;-56
2024/01/19 01:58:18;;;;;;;11.23;6.10;;;-0.70;99.90;;;;;;4948166;29;20048;-55
2024/01/19 02:00:46;;;;;;;;;;;-0.80;99.90;;;;;;4948389;29;20050;-54
2024/01/19 02:03:13;;;;;;;15.27;5.90;;;-0.80;99.90;;;;;;4949035;29;19923;-55
2024/01/19 02:05:41;;;;;;;12.50;6.53;;;-0.90;99.90;;;;;;4954417;28;20113;-56
2024/01/19 02:08:08;;;;;;;;;;;-0.90;99.90;;;;;;4947477;29;20048;-55
2024/01/19 02:10:35;;;;;;;12.40;5.60;;;-1.00;99.90;;;;;;4955300;29;19954;-55
2024/01/19 02:13:02;;;;;;;15.93;6.25;;;-0.90;99.90;;;;;;4938006;29;20047;-58
2024/01/19 02:15:30;;;;;;;10.63;5.75;;;-1.00;99.90;;;;;;4948981;28;20047;-54
2024/01/19 02:17:57;;;;;;;16.35;5.55;;;-1.00;99.90;;;;;;4954699;29;20057;-58
2024/01/19 02:20:24;;;;;;;13.02;5.75;;;-1.10;99.90;;;;;;4947034;29;20476;-58
2024/01/19 02:22:52;;;;;;;15.60;5.35;;;-1.10;99.90;;;;;;4945196;29;20051;-56
2024/01/19 02:25:20;;;;;;;10.32;5.35;;;-1.10;99.90;;;;;;4942813;29;20563;-53
2024/01/19 02:27:53;;;;;;;11.57;5.75;;;-1.10;99.90;;;;;;4951063;28;20047;-58
2024/01/19 02:30:20;;;;;;;14.85;5.78;;;-1.10;99.90;;;;;;4943427;29;20046;-56
2024/01/19 02:32:47;;;;;;;13.23;5.78;;;-1.10;99.90;;;;;;4950183;29;20047;-55
2024/01/19 02:35:14;;;;;;;12.05;5.63;;;-1.00;99.90;;;;;;4937751;29;20513;-55
2024/01/19 02:37:41;;;;;;;11.30;6.15;;;-1.00;99.90;;;;;;4954623;29;20373;-58
2024/01/19 02:40:08;;;;;;;10.98;5.90;;;-1.00;99.90;;;;;;4955493;29;20477;-53
2024/01/19 02:42:35;;;;;;;13.52;6.70;;;-1.00;99.90;;;;;;4952734;29;20031;-57
2024/01/19 02:45:02;;;;;;;13.15;6.55;;;-1.00;99.90;;;;;;4946194;28;20047;-56
2024/01/19 02:47:29;;;;;;;14.65;6.43;;;-1.00;99.90;;;;;;4954623;29;20051;-55
2024/01/19 02:49:58;;;;;;;16.13;7.38;;;-1.00;99.90;;;;;;4947260;29;20040;-55
2024/01/19 02:52:25;;;;;;;18.42;6.63;;;-1.00;99.90;;;;;;4955001;29;20043;-57
2024/01/19 02:54:52;;;;;;;15.57;6.70;;;-1.00;99.90;;;;;;4952088;28;20039;-58
2024/01/19 02:57:18;;;;;;;10.95;6.03;;;-1.00;99.90;;;;;;4955121;28;20050;-56
2024/01/19 02:59:45;;;;;;;15.38;5.88;;;-1.00;99.90;;;;;;4954033;29;20473;-54
2024/01/19 03:02:12;;;;;;;12.73;5.97;;;-1.00;99.90;;;;;;4954575;29;20114;-54
2024/01/19 03:04:39;;;;;;;13.85;6.30;;;-1.10;99.90;;;;;;4948232;29;20047;-57
2024/01/19 03:07:07;;;;;;;11.90;6.18;;;-1.10;99.90;;;;;;4952931;29;20054;-54
2024/01/19 03:09:34;;;;;;;11.07;6.32;;;-1.20;99.90;;;;;;4947249;29;20118;-58
2024/01/19 03:12:00;;;;;;;15.88;6.45;;;-1.20;99.90;;;;;;4947404;29;20515;-55
2024/01/19 03:14:27;;;;;;;13.43;7.00;;;-1.20;99.90;;;;;;4948613;28;20047;-55
2024/01/19 03:16:54;;;;;;;15.65;6.43;;;-1.20;99.90;;;;;;4952654;29;20126;-57
2024/01/19 03:19:21;;;;;;;16.25;7.05;;;-1.20;99.90;;;;;;4942727;28;20103;-57
2024/01/19 03:21:48;;;;;;;14.57;6.47;;;-1.20;99.90;;;;;;4950983;29;20126;-55
2024/01/19 03:24:14;;;;;;;15.18;7.35;;;-1.30;99.90;;;;;;4946759;28;20057;-55
2024/01/19 03:26:42;;;;;;;16.55;7.75;;;-1.30;99.90;;;;;;4950585;29;20047;-55
2024/01/19 03:29:09;;;;;;;14.18;7.00;;;-1.30;99.90;;;;;;4945381;29;20047;-56
2024/01/19 03:31:38;;;;;;;14.20;6.35;;;-1.30;99.90;;;;;;4954233;29;20047;-55
2024/01/19 03:34:05;;;;;;;21.88;6.75;;;-1.30;99.90;;;;;;4952866;28;20051;-56
2024/01/19 03:36:32;;;;;;;18.95;7.65;;;-1.30;99.90;;;;;;4953631;29;20057;-53
2024/01/19 03:38:59;;;;;;;15.88;7.28;;;-1.30;99.90;;;;;;4945924;28;20050;-55
2024/01/19 03:41:25;;;;;;;15.93;6.95;;;-1.30;99.90;;;;;;4948227;29;20045;-54
2024/01/19 03:43:52;;;;;;;15.32;6.80;;;-1.20;99.90;;;;;;4953012;28;20043;-58
2024/01/19 03:46:19;;;;;;;16.92;7.35;;;-1.20;99.90;;;;;;4952919;29;20042;-57
2024/01/19 03:48:46;;;;;;;16.33;8.20;;;-1.30;99.90;;;;;;4951395;29;20046;-58
2024/01/19 03:51:13;;;;;;;19.80;8.07;;;-1.30;99.90;;;;;;4950327;29;20070;-56
2024/01/19 03:53:43;;;;;;;17.05;7.85;;;-1.30;99.90;;;;;;4944614;28;20043;-54
2024/01/19 03:56:10;;;;;;;15.73;7.68;;;-1.30;99.90;;;;;;4951348;29;20050;-54
2024/01/19 03:58:37;;;;;;;10.55;6.00;;;-1.30;99.90;;;;;;4951476;29;20036;-55
2024/01/19 04:01:05;;;;;;;14.70;6.30;;;-1.30;99.90;;;;;;4948212;29;20450;-56
2024/01/19 04:03:33;;;;;;;13.93;6.15;;;-1.40;99.90;;;;;;4956025;28;20399;-58
2024/01/19 04:06:02;;;;;;;16.40;6.10;;;-1.40;99.90;;;;;;4947089;28;20179;-53
2024/01/19 04:08:29;;;;;;;12.13;5.30;;;-1.40;99.90;;;;;;4953098;29;20451;-56
2024/01/19 04:10:56;;;;;;;13.10;4.72;;;-1.50;99.90;;;;;;4938028;29;20044;-55
2024/01/19 04:13:23;;;;;;;8.80;4.03;;;-1.50;99.90;;;;;;4949154;29;20713;-58
2024/01/19 04:15:50;;;;;;;11.43;5.13;;;-1.50;99.90;;;;;;4949142;29;20045;-57
2024/01/19 04:18:17;;;;;;;13.88;5.03;;;-1.50;99.90;;;;;;4942209;29;20047;-57
2024/01/19 04:20:44;;;;;;;10.25;4.85;;;-1.50;99.90;;;;;;4948659;29;20124;-58
2024/01/19 04:23:10;;;;;;;10.15;4.28;;;-1.50;99.90;;;;;;4945470;29;20446;-54
2024/01/19 04:25:37;;;;;;;7.60;3.47;;;-1.50;99.90;;;;;;4988170;23;20073;-58
2024/01/19 04:28:04;;;;;;;8.93;3.78;;;-1.50;99.90;;;;;;4990838;28;20050;-58
2024/01/19 04:30:31;;;;;;;8.27;3.83;;;-1.50;99.90;;;;;;4982710;28;20101;-58
2024/01/19 04:32:57;;;;;;;9.32;4.18;;;-1.50;99.90;;;;;;4989714;28;20483;-57
2024/01/19 04:35:24;;;;;;;6.82;3.10;;;-1.40;99.90;;;;;;4975045;28;20043;-54
2024/01/19 04:37:51;;;;;;;7.18;3.40;;;-1.40;99.90;;;;;;4964072;28;20480;-56
2024/01/19 04:40:18;;;;;;;8.57;4.35;;;-1.40;99.90;;;;;;4968274;28;20039;-58
2024/01/19 04:42:45;;;;;;;8.13;3.67;;;-1.40;99.90;;;;;;4971417;28;20042;-55
2024/01/19 04:45:11;;;;;;;10.18;4.18;;;-1.40;99.90;;;;;;4971754;28;20046;-56
2024/01/19 04:47:38;;;;;;;9.38;3.88;;;-1.40;99.90;;;;;;4971673;28;20039;-58
2024/01/19 04:50:06;;;;;;;8.90;4.65;;;-1.30;99.90;;;;;;4974035;28;20042;-58
2024/01/19 04:52:33;;;;;;;12.48;4.70;;;-1.40;99.90;;;;;;4970022;28;20063;-58
2024/01/19 04:54:59;;;;;;;12.75;4.15;;;-1.40;99.90;;;;;;4969506;28;20054;-54
2024/01/19 04:57:26;;;;;;;15.55;5.10;;;-1.30;99.90;;;;;;4975148;28;20042;-56
2024/01/19 04:59:53;;;;;;;10.80;5.22;;;-1.30;99.90;;;;;;4974925;28;20055;-58
2024/01/19 05:02:20;;;;;;;13.48;5.40;;;-1.30;99.90;;;;;;4976292;28;20098;-53
2024/01/19 05:04:47;;;;;;;8.10;4.28;;;-1.40;99.90;;;;;;4973296;28;20043;-55
2024/01/19 05:07:14;;;;;;;11.50;4.88;;;-1.40;99.90;;;;;;4975747;28;20058;-58
2024/01/19 05:09:40;;;;;;;13.00;5.70;;;-1.40;99.90;;;;;;4975282;28;20038;-53
2024/01/19 05:12:07;;;;;;;20.60;5.68;;;-1.40;99.90;;;;;;4972566;28;20053;-56
2024/01/19 05:14:34;;;;;;;13.25;5.25;;;-1.30;99.90;;;;;;4973967;28;20034;-58
2024/01/19 05:17:01;;;;;;;15.77;5.45;;;-1.30;99.90;;;;;;4971107;28;20122;-59
2024/01/19 05:19:28;;;;;;;12.80;6.35;;;-1.30;99.90;;;;;;4975222;28;20042;-55
2024/01/19 05:21:54;;;;;;;11.95;5.55;;;-1.30;99.90;;;;;;4969126;28;20106;-59
2024/01/19 05:24:21;;;;;;;15.18;5.35;;;-1.30;99.90;;;;;;4983177;28;20122;-55
2024/01/19 05:26:48;;;;;;;13.45;5.70;;;-1.30;99.90;;;;;;4967038;28;20056;-59
2024/01/19 05:29:15;;;;;;;12.95;5.63;;;-1.30;99.90;;;;;;4955627;28;20528;-56
2024/01/19 05:31:42;;;;;;;12.90;5.32;;;-1.30;99.90;;;;;;4960511;28;20467;-55
2024/01/19 05:34:09;;;;;;;19.38;6.10;;;-1.30;99.90;;;;;;4965430;28;20489;-53
2024/01/19 05:36:35;;;;;;;11.52;4.72;;;-1.30;99.90;;;;;;4969909;28;20043;-59
2024/01/19 05:39:03;;;;;;;15.38;5.85;;;-1.30;99.90;;;;;;4963647;28;20492;-57
2024/01/19 05:41:30;;;;;;;12.90;5.30;;;-1.30;99.90;;;;;;4962188;28;20053;-57
2024/01/19 05:43:56;;;;;;;16.85;6.13;;;-1.30;99.90;;;;;;4975325;28;20042;-55
2024/01/19 05:46:23;;;;;;;10.82;5.82;;;-1.30;99.90;;;;;;4966172;28;20046;-54
2024/01/19 05:48:50;;;;;;;20.50;6.00;;;-1.30;99.90;;;;;;4975694;28;20502;-57
2024/01/19 05:51:17;;;;;;;11.07;5.55;;;-1.30;99.90;;;;;;4964259;28;20046;-54
2024/01/19 05:53:44;;;;;;;18.70;7.38;;;-1.40;99.90;;;;;;4960491;28;20039;-57
2024/01/19 05:56:11;;;;;;;11.32;5.38;;;-1.40;99.90;;;;;;4974168;28;20081;-58
2024/01/19 05:58:38;;;;;;;14.50;5.55;;;-1.30;99.90;;;;;;4973171;28;20057;-59
2024/01/19 06:01:05;;;;;;;10.57;4.57;;;-1.30;99.90;;;;;;4946286;29;20035;-55
2024/01/19 06:03:35;;;;;;;11.70;5.00;;;-1.30;99.90;;;;;;4965038;28;20039;-55
2024/01/19 06:06:03;;;;;;;12.80;5.22;;;-1.20;99.90;;;;;;4973005;28;20030;-59
2024/01/19 06:08:31;;;;;;;13.60;5.60;;;-1.30;99.90;;;;;;4963281;28;20039;-58
2024/01/19 06:10:58;;;;;;;7.93;3.72;;;-1.30;99.90;;;;;;4980665;28;20538;-58
2024/01/19 06:13:26;;;;;;;11.23;4.72;;;-1.20;99.90;;;;;;4986969;28;20447;-58
2024/01/19 06:15:52;;;;;;;13.95;4.70;;;-1.30;99.90;;;;;;4988902;28;20035;-57
2024/01/19 06:18:19;;;;;;;12.63;4.65;;;-1.30;99.90;;;;;;4980047;28;20046;-56
2024/01/19 06:20:46;;;;;;;7.60;3.55;;;-1.30;99.90;;;;;;4988698;28;20047;-56
2024/01/19 06:23:13;;;;;;;10.05;3.75;;;-1.30;99.90;;;;;;4974591;28;20554;-57
2024/01/19 06:25:40;;;;;;;8.23;3.92;;;-1.40;99.90;;;;;;4989408;28;20043;-58
2024/01/19 06:28:07;;;;;;;10.18;4.30;;;-1.40;99.90;;;;;;4968843;28;20078;-56
2024/01/19 06:30:34;;;;;;;8.98;4.22;;;-1.40;99.90;;;;;;4971135;28;20102;-57
2024/01/19 06:33:05;;;;;;;10.85;4.47;;;-1.40;99.90;;;;;;4973938;28;20043;-56
2024/01/19 06:35:32;;;;;;;9.60;4.72;;;-1.40;99.90;;;;;;4960160;28;20119;-57
2024/01/19 06:37:59;;;;;;;9.05;4.70;;;-1.40;99.90;;;;;;4967350;28;20050;-56
2024/01/19 06:40:25;;;;;;;8.57;5.00;;;-1.40;99.90;;;;;;4965208;28;20092;-56
2024/01/19 06:42:52;;;;;;;15.43;5.57;;;-1.50;99.90;;;;;;4974156;28;20045;-56
2024/01/19 06:45:19;;;;;;;14.30;5.63;;;-1.50;99.90;;;;;;4964477;28;20054;-58
2024/01/19 06:47:46;;;;;;;10.88;5.07;;;-1.50;99.90;;;;;;4960930;28;20039;-56
2024/01/19 06:50:13;;;;;;;12.38;5.25;;;-1.40;99.90;;;;;;4966026;28;20047;-58
2024/01/19 06:52:39;;;;;;;12.02;4.38;;;-1.50;99.90;;;;;;4974473;28;20757;-59
2024/01/19 06:55:07;;;;;;;9.57;4.95;;;-1.50;99.90;;;;;;4971926;28;20039;-56
2024/01/19 06:57:33;;;;;;;10.32;4.15;;;-1.50;99.90;;;;;;4955036;29;20408;-58
2024/01/19 07:00:00;;;;;;;7.80;4.15;;;-1.60;99.90;;;;;;4970030;28;20042;-56
2024/01/19 07:02:27;;;;;;;16.80;4.82;;;-1.50;99.90;;;;;;4962335;28;20122;-56
2024/01/19 07:04:54;;;;;;;10.00;4.78;;;-1.50;99.90;;;;;;4960069;28;20031;-58
2024/01/19 07:07:21;;;;;;;11.30;5.13;;;-1.50;99.90;;;;;;4972445;28;20035;-54
2024/01/19 07:09:47;;;;;;;11.38;5.40;;;-1.50;99.90;;;;;;4971711;28;20045;-57
2024/01/19 07:12:16;;;;;;;13.25;5.72;;;-1.50;99.90;;;;;;4962350;28;20508;-57
2024/01/19 07:14:44;;;;;;;12.25;5.15;;;-1.50;99.90;;;;;;4972588;28;20047;-53
2024/01/19 07:17:11;;;;;;;11.88;5.38;;;-1.50;99.90;;;;;;4971490;28;20125;-54
2024/01/19 07:19:42;;;;;;;15.68;5.85;;;-1.50;99.90;;;;;;4962448;28;20392;-55
2024/01/19 07:22:09;;;;;;;7.38;3.42;;;-1.50;99.90;;;;;;4953879;28;20053;-55
2024/01/19 07:24:36;;;;;;;12.13;5.00;;;-1.50;99.90;;;;;;4965513;28;20411;-57
2024/01/19 07:27:04;;;;;;;13.40;4.65;;;-1.40;99.90;;;;;;4965930;28;20079;-57
2024/01/19 07:29:31;;;;;;;16.52;5.25;;;-1.40;99.90;;;;;;4964669;28;20112;-55
2024/01/19 07:31:59;;;;;;;11.60;5.50;;;-1.40;99.90;;;;;;4971867;28;20461;-53
2024/01/19 07:34:26;;;;;;;11.43;6.10;;;-1.40;99.90;;;;;;4973265;28;20085;-56
2024/01/19 07:36:53;;;;;;;16.33;5.50;;;-1.40;99.90;;;;;;4972177;28;20500;-55
2024/01/19 07:39:23;;;;;;;16.40;5.07;;;-1.40;99.90;;;;;;4955193;28;20043;-55
2024/01/19 07:41:53;;;;;;;11.07;4.80;;;-1.40;99.90;;;;;;4958673;28;20041;-53
2024/01/19 07:44:20;;;;;;;14.93;5.75;;;-1.40;99.90;;;;;;4971665;28;20055;-55
2024/01/19 07:46:48;;;;;;;12.88;5.85;;;-1.40;99.90;;;;;;4966190;28;20075;-55
2024/01/19 07:49:20;;;;;;;12.32;5.22;;;-1.30;99.90;;;;;;4962703;28;20091;-59
2024/01/19 07:51:48;;;;;;;17.50;4.80;;;-1.30;99.90;;;;;;4965967;28;20134;-55
2024/01/19 07:54:17;;;;;;;11.25;4.70;;;-1.30;99.90;;;;;;4972575;28;20131;-56
2024/01/19 07:56:44;;;;;;;14.05;5.18;;;-1.20;99.90;;;;;;4971488;28;20488;-55
2024/01/19 07:59:11;;;;;;;13.35;5.55;;;-1.20;99.90;;;;;;4957126;28;20118;-55
2024/01/19 08:01:40;;;;;;;13.02;3.58;;;-1.10;99.90;;;;;;4963573;28;20038;-54
2024/01/19 08:04:07;;;;;;;10.80;4.53;;;-1.10;99.90;;;;;;4964592;28;20046;-54
2024/01/19 08:06:34;;;;;;;7.65;4.50;;;-1.00;99.90;;;;;;4970002;28;20449;-55
2024/01/19 08:09:02;;;;;;;8.13;4.22;;;-1.00;99.90;;;;;;4963464;28;20063;-55
2024/01/19 08:11:29;;;;;;;11.80;4.10;;;-1.00;99.90;;;;;;4972377;28;20045;-59
2024/01/19 08:13:55;;;;;;;6.68;3.45;;;-0.90;99.90;;;;;;4972393;28;20046;-53
2024/01/19 08:16:23;;;;;;;9.40;3.08;;;-0.90;99.90;;;;;;4971647;28;20046;-58
2024/01/19 08:18:50;;;;;;;6.72;3.63;;;-0.90;99.90;;;;;;4966293;28;20043;-54
2024/01/19 08:21:17;;;;;;;14.48;4.07;;;-0.90;99.90;;;;;;4969248;28;20050;-57
2024/01/19 08:23:44;;;;;;;8.90;4.05;;;-0.90;99.90;;;;;;4970708;28;20403;-58
2024/01/19 08:26:10;;;;;;;15.00;4.60;;;-0.80;99.90;;;;;;4960711;28;20102;-58
2024/01/19 08:28:37;;;;;;;15.32;4.07;;;-0.80;99.90;;;;;;4952975;28;20039;-55
2024/01/19 08:31:04;;;;;;;10.15;3.83;;;-0.80;99.90;;;;;;4966345;28;20053;-57
2024/01/19 08:33:31;;;;;;;8.32;2.38;;;-0.80;99.90;;;;;;4963429;28;20035;-56
2024/01/19 08:35:58;;;;;;;7.18;2.65;;;-0.70;99.90;;;;;;4958670;28;20477;-56
2024/01/19 08:38:24;;;;;;;5.97;3.17;;;-0.80;99.90;;;;;;4961708;28;20094;-56
2024/01/19 08:40:51;;;;;;;6.90;2.97;;;-0.80;99.90;;;;;;4963250;28;20500;-54
2024/01/19 08:43:18;;;;;;;9.75;3.25;;;-0.70;99.90;;;;;;4970653;28;20492;-56
2024/01/19 08:45:45;;;;;;;12.57;3.22;;;-0.60;99.90;;;;;;4956325;28;20046;-56
2024/01/19 08:48:12;;;;;;;9.48;2.90;;;-0.60;99.90;;;;;;4964996;28;20047;-54
2024/01/19 08:50:40;;;;;;;6.03;2.67;;;-0.50;99.90;;;;;;4971874;28;20137;-58
2024/01/19 08:53:07;;;;;;;4.97;2.88;;;-0.50;99.90;;;;;;4971199;28;20053;-53
2024/01/19 08:55:34;;;;;;;9.38;3.65;;;-0.40;99.90;;;;;;4968733;28;20117;-54
2024/01/19 08:58:01;;;;;;;6.30;2.72;;;-0.40;99.90;;;;;;4972090;28;20046;-56
2024/01/19 09:00:27;;;;;;;9.75;3.67;;;-0.30;99.90;;;;;;4968308;28;20038;-58
2024/01/19 09:02:54;;;;;;;8.90;3.65;;;-0.30;99.90;;;;;;4964770;28;20038;-57
2024/01/19 09:05:29;;;;;;;12.38;4.72;;;-0.20;99.90;;;;;;4971879;28;20082;-55
2024/01/19 09:07:57;;;;;;;7.88;3.60;;;-0.20;99.90;;;;;;4971959;28;20042;-56
2024/01/19 09:10:24;;;;;;;8.15;4.65;;;-0.20;99.90;;;;;;4964403;28;20042;-54
2024/01/19 09:12:51;;;;;;;10.43;4.78;;;-0.10;99.90;;;;;;4952124;28;20039;-57
2024/01/19 09:15:18;;;;;;;14.82;4.38;;;-0.10;99.90;;;;;;4967395;28;20125;-58
2024/01/19 09:17:45;;;;;;;5.75;3.30;;;-0.10;99.90;;;;;;4963624;28;20515;-55
2024/01/19 09:20:12;;;;;;;;;;;-0.10;99.90;;;;;;4961701;28;20123;-53
2024/01/19 09:22:39;;;;;;;10.27;4.40;;;-0.10;99.90;;;;;;4960009;28;19981;-57
2024/01/19 09:25:06;;;;;;;7.82;4.15;;;-0.10;99.90;;;;;;4964751;28;20496;-54
2024/01/19 09:27:33;;;;;;;7.45;3.85;;;-0.10;99.90;;;;;;4970818;28;20046;-57
2024/01/19 09:30:00;;;;;;;7.93;3.78;;;-0.10;99.90;;;;;;4965560;28;20416;-53
2024/01/19 09:32:27;;;;;;;8.32;3.90;;;-0.10;99.90;;;;;;4959697;28;20143;-54
2024/01/19 09:34:54;;;;;;;9.02;4.70;;;-0.10;99.90;;;;;;4962429;28;20073;-58
2024/01/19 09:37:22;;;;;;;10.63;4.20;;;-0.10;99.90;;;;;;4974831;28;20457;-57
2024/01/19 09:39:49;;;;;;;15.77;3.35;;;-0.10;99.90;;;;;;4963233;28;20042;-56
2024/01/19 09:42:32;;;;;;;10.90;4.63;;;-0.10;99.90;;;;;;4970564;28;20125;-56
2024/01/19 09:45:07;;;;;;;8.73;3.95;;;-0.10;99.90;;;;;;4956354;28;20130;-58
2024/01/19 09:48:02;;;;;;;10.60;4.20;;;0.00;99.90;;;;;;4957114;28;20309;-55
2024/01/19 09:50:34;;;;;;;10.50;4.50;;;0.00;99.90;;;;;;4967422;28;20387;-55
2024/01/19 09:53:08;;;;;;;10.38;4.10;;;0.00;99.90;;;;;;4966927;28;20071;-56
2024/01/19 09:55:35;;;;;;;7.47;3.50;;;0.00;99.90;;;;;;4965925;28;20047;-58
2024/01/19 09:58:01;;;;;;;10.95;4.53;;;0.10;99.90;;;;;;4955783;28;20050;-55
2024/01/19 10:00:28;;;;;;;10.82;3.70;;;0.20;99.90;;;;;;4965054;28;20512;-56
2024/01/19 10:02:55;;;;;;;7.60;3.65;;;0.20;99.90;;;;;;4959274;28;20399;-55
2024/01/19 10:05:27;;;;;;;10.65;4.38;;;0.20;99.90;;;;;;4973790;28;20563;-58
2024/01/19 10:07:55;;;;;;;11.18;4.65;;;0.30;99.90;;;;;;4974606;28;20046;-54
2024/01/19 10:10:22;;;;;;;7.75;3.67;;;0.30;99.90;;;;;;4974287;28;20043;-57
2024/01/19 10:12:49;;;;;;;8.75;3.85;;;0.40;99.90;;;;;;4962443;28;20051;-57
2024/01/19 10:15:16;;;;;;;9.00;3.20;;;0.40;99.90;;;;;;4961931;28;20039;-53
2024/01/19 10:17:45;;;;;;;8.32;3.53;;;0.40;99.90;;;;;;4974566;28;20042;-53
2024/01/19 10:20:14;;;;;;;7.70;3.60;;;0.40;99.90;;;;;;4969025;28;20507;-55
2024/01/19 10:22:42;;;;;;;12.52;3.88;;;0.40;99.90;;;;;;4966028;28;20065;-55
2024/01/19 10:25:12;;;;;;;8.40;3.50;;;0.40;99.90;;;;;;4973654;28;20109;-58
2024/01/19 10:27:39;;;;;;;8.73;4.00;;;0.40;99.90;;;;;;4966227;28;20065;-53
2024/01/19 10:30:10;;;;;;;9.40;4.18;;;0.40;99.90;;;;;;4968694;28;20042;-56
2024/01/19 10:32:39;;;;;;;11.73;4.25;;;0.40;99.90;;;;;;4982780;28;20047;-56
2024/01/19 10:35:20;;;;;;;6.38;3.63;;;0.40;99.90;;;;;;4980911;28;20043;-55
2024/01/19 10:37:48;;;;;;;8.43;3.95;;;0.50;99.90;;;;;;4978738;28;20058;-54
2024/01/19 10:40:22;;;;;;;8.18;4.22;;;0.50;99.90;;;;;;4974286;28;20400;-56
2024/01/19 10:42:53;;;;;;;14.80;4.35;;;0.60;99.90;;;;;;4972762;28;20042;-59
2024/01/19 10:45:25;;;;;;;11.23;4.28;;;0.70;99.90;;;;;;4960528;28;20086;-59
2024/01/19 10:47:54;;;;;;;8.25;4.00;;;0.70;99.90;;;;;;4972835;28;20604;-57
2024/01/19 10:50:25;;;;;;;8.02;4.18;;;0.70;99.90;;;;;;4966198;28;20490;-56
2024/01/19 10:52:53;;;;;;;9.63;4.13;;;0.80;99.90;;;;;;4973070;28;20042;-55
2024/01/19 10:55:28;;;;;;;10.23;3.40;;;0.80;99.90;;;;;;4972684;28;20054;-52
2024/01/19 10:58:10;;;;;;;12.38;3.70;;;0.80;99.90;;;;;;4954514;28;20078;-57
2024/01/19 11:00:41;;;;;;;10.77;3.40;;;0.70;99.90;;;;;;4970016;28;20548;-55
2024/01/19 11:03:08;;;;;;;7.18;3.17;;;0.80;99.90;;;;;;4972996;28;20078;-53
2024/01/19 11:05:35;;;;;;;6.50;2.70;;;0.70;99.90;;;;;;4941527;28;20070;-54
2024/01/19 11:08:03;;;;;;;8.55;2.75;;;0.80;99.90;;;;;;4954217;28;20043;-54
2024/01/19 11:10:31;;;;;;;8.30;2.33;;;0.90;99.90;;;;;;4968954;28;20061;-52
2024/01/19 11:13:00;;;;;;;8.30;2.50;;;1.00;99.90;;;;;;4964717;28;20043;-57
2024/01/19 11:15:48;;;;;;;6.13;2.78;;;1.10;99.90;;;;;;4965720;28;20054;-55
2024/01/19 11:18:15;;;;;;;8.17;2.27;;;1.10;99.90;;;;;;4967704;28;20045;-57
2024/01/19 11:20:42;;;;;;;8.43;2.22;;;1.00;99.90;;;;;;4964299;28;20286;-54
2024/01/19 11:23:10;;;;;;;9.30;2.40;;;1.10;99.90;;;;;;4969976;28;20043;-58
2024/01/19 11:26:14;;;;;;;5.57;2.38;;;1.10;99.90;;;;;;4960870;28;20047;-55
2024/01/19 11:28:59;;;;;;;3.85;1.90;;;1.00;99.90;;;;;;4972378;28;20518;-53
2024/01/19 11:31:29;;;;;;;5.97;1.85;;;1.00;99.90;;;;;;4953833;28;20058;-58
2024/01/19 11:33:57;;;;;;;6.00;2.05;;;1.00;99.90;;;;;;4953563;28;20058;-58
2024/01/19 11:36:46;;;;;;;8.07;2.17;;;1.00;99.90;;;;;;4965198;28;20086;-53
2024/01/19 11:39:38;;;;;;;7.32;2.17;;;1.00;99.90;;;;;;4960879;28;20043;-53
2024/01/19 11:42:05;;;;;;;5.30;2.78;;;1.00;99.90;;;;;;4961606;28;20043;-52
2024/01/19 11:44:45;;;;;;;;;;;0.90;99.90;;;;;;4961587;28;20043;-55
2024/01/19 11:47:41;;;;;;;7.57;2.50;;;1.00;99.90;;;;;;4973128;28;19922;-58
2024/01/19 11:50:13;;;;;;;4.75;1.67;;;1.10;99.90;;;;;;4957404;28;20052;-54
2024/01/19 11:52:42;;;;;;;5.22;2.00;;;1.20;99.90;;;;;;4953917;28;20397;-58
2024/01/19 11:55:27;;;;;;;7.70;2.47;;;1.20;99.90;;;;;;4971808;28;20475;-56
2024/01/19 11:57:58;;;;;;;6.82;2.90;;;1.10;99.90;;;;;;4972788;28;20043;-57
2024/01/19 12:00:24;;;;;;;11.13;2.60;;;1.00;99.90;;;;;;4969189;28;20454;-57
2024/01/19 12:02:57;;;;;;;4.10;1.50;;;1.00;99.90;;;;;;4953156;29;20035;-58
2024/01/19 12:05:25;;;;;;;10.10;3.03;;;0.90;99.90;;;;;;4966463;28;20416;-54
2024/01/19 12:08:01;;;;;;;5.32;2.97;;;0.90;99.90;;;;;;4972544;28;20078;-54
2024/01/19 12:10:28;;;;;;;6.38;3.25;;;0.80;99.90;;;;;;4972187;28;20500;-55
2024/01/19 12:12:55;;;;;;;6.15;3.25;;;0.70;99.90;;;;;;4959621;28;20051;-54
2024/01/19 12:15:22;;;;;;;7.72;3.30;;;0.60;99.90;;;;;;4972015;28;20484;-54
2024/01/19 12:17:49;;;;;;;6.35;2.63;;;0.50;99.90;;;;;;4971615;28;20070;-55
2024/01/19 12:20:18;;;;;;;6.68;2.80;;;0.50;99.90;;;;;;4962321;28;20121;-53
2024/01/19 12:22:50;;;;;;;7.65;2.70;;;0.40;99.90;;;;;;4953372;28;20412;-53
2024/01/19 12:25:19;;;;;;;9.98;3.15;;;0.30;99.90;;;;;;4967487;28;20416;-55
2024/01/19 12:27:48;;;;;;;8.40;3.53;;;0.30;99.90;;;;;;4968639;28;20484;-54
2024/01/19 12:30:17;;;;;;;6.72;3.83;;;0.20;99.90;;;;;;4953530;28;20058;-53
2024/01/19 12:32:45;;;;;;;12.75;3.55;;;0.30;99.90;;;;;;4968997;28;20138;-56
2024/01/19 12:35:12;;;;;;;8.43;3.47;;;0.20;99.90;;;;;;4971299;28;20046;-57
2024/01/19 12:37:39;;;;;;;7.15;3.00;;;0.20;99.90;;;;;;4963808;28;20043;-58
2024/01/19 12:40:22;;;;;;;6.22;2.78;;;0.20;99.90;;;;;;4963024;28;20034;-56
2024/01/19 12:42:49;;;;;;;6.57;2.88;;;0.20;99.90;;;;;;4955838;28;20118;-57
2024/01/19 12:45:18;;;;;;;9.48;3.10;;;0.20;99.90;;;;;;4972010;28;20039;-53
2024/01/19 12:47:48;;;;;;;9.48;3.40;;;0.10;99.90;;;;;;4972096;28;20034;-57